This is the latest recevied weather packets stored in our database for station/object KJ6LNH-1. If no packets are shown the sender has not sent any weather packets the latest 1 day(s).
| Time | Temp. | Humidity | Pressure | Rain* | Wind** | Luminosity | Snow |
|---|---|---|---|---|---|---|---|
| 1778014207 | 17.78° C | 70% | 1014.4 hPa | 0 mm | 0.45 m/s, 249° | - | - |
| 1778012707 | 16.67° C | 71% | 1014.5 hPa | 0 mm | 0.89 m/s, 221° | - | - |
| 1778012408 | 16.67° C | 71% | 1014.5 hPa | 0 mm | 0.89 m/s, 208° | - | - |
| 1778011808 | 16.11° C | 74% | 1014.5 hPa | 0 mm | 1.79 m/s, 246° | - | - |
| 1778011207 | 16.11° C | 77% | 1014.7 hPa | 0 mm | 1.34 m/s, 214° | - | - |
| 1778010907 | 16.11° C | 77% | 1014.7 hPa | 0 mm | 1.34 m/s, 219° | - | - |
| 1778010608 | 16.11° C | 77% | 1014.7 hPa | 0 mm | 1.34 m/s, 238° | - | - |
| 1778010308 | 15.56° C | 78% | 1014.7 hPa | 0 mm | 1.79 m/s, 242° | - | - |
| 1778009707 | 15.56° C | 78% | 1014.7 hPa | 0 mm | 2.24 m/s, 211° | - | - |
| 1778009107 | 16.11° C | 77% | 1014.7 hPa | 0 mm | 1.34 m/s, 205° | - | - |
| 1778008808 | 16.11° C | 79% | 1014.6 hPa | 0 mm | 1.34 m/s, 194° | - | - |
| 1778008508 | 16.11° C | 79% | 1014.7 hPa | 0 mm | 1.34 m/s, 214° | - | - |
| 1778008207 | 16.11° C | 78% | 1014.7 hPa | 0 mm | 1.34 m/s, 213° | - | - |
| 1778007607 | 15° C | 82% | 1014.7 hPa | 0 mm | 1.34 m/s, 206° | - | - |
| 1778007308 | 15° C | 82% | 1014.7 hPa | 0 mm | 1.34 m/s, 217° | - | - |
| 1778006707 | 15° C | 83% | 1014.6 hPa | 0 mm | 2.24 m/s, 242° | - | - |
| 1778006407 | 14.44° C | 83% | 1014.5 hPa | 0 mm | 1.34 m/s, 259° | - | - |
| 1778006108 | 14.44° C | 85% | 1014.5 hPa | 0 mm | 1.79 m/s, 0° | - | - |
| 1778005507 | 14.44° C | 86% | 1014.6 hPa | 0 mm | 1.79 m/s, 233° | - | - |
| 1778005207 | 13.89° C | 86% | 1014.5 hPa | 0 mm | 0.89 m/s, 261° | - | - |
| 1778004907 | 13.89° C | 87% | 1014.5 hPa | 0 mm | 1.79 m/s, 241° | - | - |
| 1778004608 | 13.89° C | 88% | 1014.6 hPa | 0 mm | 1.79 m/s, 229° | - | - |
| 1778004007 | 13.33° C | 91% | 1014.6 hPa | 0.51 mm | 2.24 m/s, 197° | - | - |
| 1778003707 | 13.33° C | 91% | 1014.5 hPa | 0.51 mm | 0.89 m/s, 281° | - | - |
| 1778003407 | 13.33° C | 91% | 1014.4 hPa | 0.51 mm | 1.34 m/s, 258° | - | - |
* Rain latest hour (hover to see other rain measurements)
** Current wind speed in m/s (hover to see current wind gust speed)